Aérodrome :
LOGIN :

S'inscrire | Disclaimer

   EN    FR    IT 

 










Légende :    VFR   VFR Marginal   IFR   IFR Intensif   IFR Très Intensif
Visi : 
Plafond : 
>= 8 km
>= 3000ft
5 à 8 km
1000 à 3000 ft
1500m à 5 km
500 à 1000 ft
800 à 1500m
200 à 500 ft
< 800m
< 200 ft
Symboles :   Orages  Brouillard  Fortes neiges  Fortes précipitations  Vent > 20 kt
SIGMETs :   Divers  Orages  Givrage  Turbulence  Onde Orograph.  Cendres Volcan.







- Altitude de l'aérodrome : 53 ft
- Code IATA : HAM


EDDH - Hamburg

DERNIER METAR :
  • 231120Z 29016KT 9999 SCT020 BKN041 15/09 Q1021 TEMPO 30020G30KT

METARs EXPIRÉS :
  • 231050Z 31015KT 9999 -SHRA SCT022TCU BKN035 14/09 Q1021 TEMPO 30020G30KT
  • 231020Z 30016KT 9999 VCSH FEW015 FEW023TCU BKN030 14/09 Q1021 TEMPO 30020G30KT
  • 230950Z 30020KT 9999 -SHRA FEW015 SCT023TCU BKN028 14/08 Q1020 TEMPO 30015G25KT
  • 230920Z 31018KT 9999 -SHRA FEW015 SCT023TCU BKN035 14/08 Q1020 TEMPO 30015G25KT
  • 230850Z 29014G25KT 260V330 9999 -SHRA FEW015 SCT020TCU BKN045 15/09 Q1020 NOSIG

TAF TAF EDDH
Valide du 23 à 12h jusqu'au 24 à 18h UTC


231100Z 2312/2418 29015KT 9999 SCT025
TEMPO 2312/2317 31020G30KT
BECMG 2315/2318 BKN012
BECMG 2317/2319 28008KT
TEMPO 2321/2408 4000 -DZ BKN008
BECMG 2409/2412 BKN015
Pas de NOTAMs connus pour ce terrain.



MET'MAP, la Météo Aéronautique d'un coup d'oeil ! - Copyright ORBIFLY Décembre 2007 - Disclaimer

ORBIFLY MET'MAP TEAM :

Programmation & Développement : Alexandra Zaïnal
Conception & Développement : Baudouin d'Aumeries
Co-Programmation & Développement : Marc-Olivier Méhu
Soutien technique & logistique : Manuel Goepfert

Contact : metmap@orbifly.com




SOURCES & CREDITS :

   NOAA